createdAt,value
2019-02-27T00:04:34.850Z,4.68
2019-02-27T00:09:38.825Z,4.64
2019-02-27T00:14:44.011Z,4.60
2019-02-27T00:19:49.246Z,4.53
2019-02-27T00:24:54.428Z,4.49
2019-02-27T00:30:04.504Z,4.38
2019-02-27T00:35:08.963Z,4.21
2019-02-27T00:40:14.115Z,4.21
2019-02-27T00:45:19.284Z,4.25
2019-02-27T00:50:24.705Z,4.20
2019-02-27T00:55:30.623Z,4.22
2019-02-27T01:00:38.960Z,4.19
2019-02-27T01:05:43.841Z,4.11
2019-02-27T01:10:48.934Z,4.00
2019-02-27T01:15:54.992Z,3.90
2019-02-27T01:21:00.141Z,3.80
2019-02-27T01:26:05.297Z,3.72
2019-02-27T01:31:10.453Z,3.57
2019-02-27T01:36:15.568Z,3.47
2019-02-27T01:41:24.353Z,3.31
2019-02-27T01:46:28.476Z,3.27
2019-02-27T01:51:34.897Z,3.17
2019-02-27T01:56:39.975Z,3.09
2019-02-27T02:01:45.896Z,3.03
2019-02-27T02:06:51.040Z,3.00
2019-02-27T02:11:56.193Z,3.01
2019-02-27T02:17:11.809Z,2.98
2019-02-27T02:22:32.116Z,2.96
2019-02-27T02:28:04.192Z,2.96
2019-02-27T02:33:29.378Z,2.88
2019-02-27T02:39:19.171Z,2.83
2019-02-27T02:45:33.076Z,2.78
2019-02-27T02:51:05.072Z,2.72
2019-02-27T02:56:25.677Z,2.68
2019-02-27T03:01:49.392Z,2.67
2019-02-27T03:07:30.938Z,2.66
2019-02-27T03:13:14.935Z,2.68
2019-02-27T03:19:07.415Z,2.66
2019-02-27T03:24:45.719Z,2.46
2019-02-27T03:30:34.022Z,2.40
2019-02-27T03:36:15.300Z,2.40
2019-02-27T03:41:30.285Z,2.34
2019-02-27T03:47:08.099Z,2.32
2019-02-27T03:52:48.984Z,2.32
2019-02-27T03:58:19.864Z,2.31
2019-02-27T04:03:57.571Z,2.28
2019-02-27T04:09:03.327Z,2.25
2019-02-27T04:14:29.581Z,2.25
2019-02-27T04:19:39.218Z,2.27
2019-02-27T04:24:44.714Z,2.17
2019-02-27T04:29:49.869Z,2.21
2019-02-27T04:34:56.142Z,2.21
2019-02-27T04:40:01.296Z,2.24
2019-02-27T04:45:09.846Z,2.33
2019-02-27T04:50:15.810Z,2.22
2019-02-27T04:55:20.983Z,2.23
2019-02-27T05:00:26.845Z,2.28
2019-02-27T05:05:32.368Z,2.22
2019-02-27T05:10:38.245Z,2.01
2019-02-27T05:15:44.822Z,1.91
2019-02-27T05:20:50.433Z,1.72
2019-02-27T05:25:56.373Z,1.48
2019-02-27T05:31:01.588Z,1.29
2019-02-27T05:36:06.666Z,1.23
2019-02-27T05:41:12.090Z,1.12
2019-02-27T05:46:18.203Z,1.05
2019-02-27T05:51:23.720Z,0.78
2019-02-27T05:56:29.223Z,0.77
2019-02-27T06:01:38.273Z,0.94
2019-02-27T06:06:45.108Z,1.00
2019-02-27T06:11:50.116Z,1.15
2019-02-27T06:16:55.352Z,1.15
2019-02-27T06:22:00.517Z,1.20
2019-02-27T06:27:06.847Z,1.23
2019-02-27T06:32:13.016Z,1.25
2019-02-27T06:37:19.009Z,1.31
2019-02-27T06:42:24.205Z,1.34
2019-02-27T06:47:29.725Z,1.38
2019-02-27T06:52:34.815Z,1.54
2019-02-27T06:57:41.267Z,1.50
2019-02-27T07:02:47.539Z,1.51
2019-02-27T07:07:52.712Z,1.53
2019-02-27T07:12:58.736Z,1.56
2019-02-27T07:18:06.222Z,1.61
2019-02-27T07:23:11.142Z,1.70
2019-02-27T07:28:16.587Z,1.87
2019-02-27T07:33:21.758Z,1.95
2019-02-27T07:38:26.919Z,2.15
2019-02-27T07:43:32.075Z,2.36
2019-02-27T07:48:37.267Z,2.65
2019-02-27T07:53:42.853Z,2.86
2019-02-27T07:58:49.088Z,3.05
2019-02-27T08:03:54.243Z,3.22
2019-02-27T08:09:03.494Z,3.34
2019-02-27T08:14:13.012Z,3.65
2019-02-27T08:19:18.314Z,3.77
2019-02-27T08:24:24.898Z,4.09
2019-02-27T08:29:31.162Z,4.27
2019-02-27T08:34:36.737Z,4.61
2019-02-27T08:39:42.242Z,4.90
2019-02-27T08:44:48.598Z,5.09
2019-02-27T08:49:57.614Z,5.22
2019-02-27T08:55:05.452Z,5.49
2019-02-27T09:00:14.446Z,5.77
2019-02-27T09:05:20.043Z,6.14
2019-02-27T09:10:29.388Z,6.37
2019-02-27T09:15:33.114Z,6.65
2019-02-27T09:20:38.366Z,6.81
2019-02-27T09:25:43.601Z,7.06
2019-02-27T09:30:49.617Z,7.35
2019-02-27T09:35:54.859Z,7.39
2019-02-27T09:41:00.118Z,7.84
2019-02-27T09:46:05.498Z,8.04
2019-02-27T09:51:10.733Z,8.24
2019-02-27T09:56:17.045Z,8.47
2019-02-27T10:01:22.698Z,8.66
2019-02-27T10:06:28.593Z,8.81
2019-02-27T10:11:33.827Z,9.28
2019-02-27T10:16:39.064Z,9.70
2019-02-27T10:21:45.418Z,9.86
2019-02-27T10:26:53.532Z,9.97
2019-02-27T10:31:58.271Z,10.23
2019-02-27T10:37:05.047Z,10.63
2019-02-27T10:42:10.336Z,10.90
2019-02-27T10:47:15.965Z,11.06
2019-02-27T10:52:24.396Z,11.23
2019-02-27T10:57:31.742Z,11.40
2019-02-27T11:02:35.345Z,11.54
2019-02-27T11:07:40.607Z,11.89
2019-02-27T11:12:45.893Z,12.20
2019-02-27T11:17:51.970Z,12.36
2019-02-27T11:22:57.584Z,12.60
2019-02-27T11:28:02.848Z,12.58
2019-02-27T11:33:08.466Z,12.79
2019-02-27T11:38:13.819Z,12.88
2019-02-27T11:43:19.066Z,13.33
2019-02-27T11:48:24.332Z,13.48
2019-02-27T11:53:29.926Z,13.73
2019-02-27T11:58:38.232Z,13.84
2019-02-27T12:03:45.726Z,14.15
2019-02-27T12:08:49.391Z,14.24
2019-02-27T12:13:55.088Z,14.49
2019-02-27T12:19:00.330Z,14.79
2019-02-27T12:24:05.973Z,14.87
2019-02-27T12:29:11.684Z,14.97
2019-02-27T12:34:17.297Z,15.14
2019-02-27T12:39:22.546Z,15.38
2019-02-27T12:44:28.558Z,15.41
2019-02-27T12:49:33.834Z,15.49
2019-02-27T12:54:39.075Z,15.58
2019-02-27T12:59:44.312Z,15.49
2019-02-27T13:04:52.484Z,15.59
2019-02-27T13:09:58.774Z,15.66
2019-02-27T13:15:06.682Z,15.86
2019-02-27T13:20:16.853Z,15.81
2019-02-27T13:25:24.265Z,15.97
2019-02-27T13:30:29.157Z,16.17
2019-02-27T13:35:34.765Z,16.08
2019-02-27T13:40:40.327Z,16.21
2019-02-27T13:45:47.572Z,16.60
2019-02-27T13:50:52.553Z,16.87
2019-02-27T13:55:57.806Z,16.96
2019-02-27T14:01:03.064Z,17.28
2019-02-27T14:06:09.327Z,17.19
2019-02-27T14:11:14.837Z,17.50
2019-02-27T14:16:20.076Z,17.75
2019-02-27T14:21:25.349Z,17.70
2019-02-27T14:26:30.594Z,17.64
2019-02-27T14:31:36.169Z,17.92
2019-02-27T14:36:42.499Z,17.91
2019-02-27T14:41:49.266Z,17.96
2019-02-27T14:46:56.096Z,17.64
2019-02-27T14:52:01.728Z,18.05
2019-02-27T14:57:06.970Z,17.80
2019-02-27T15:02:12.214Z,17.72
2019-02-27T15:07:17.565Z,17.87
2019-02-27T15:12:22.935Z,17.80
2019-02-27T15:17:28.211Z,18.01
2019-02-27T15:22:33.699Z,18.22
2019-02-27T15:27:39.777Z,18.75
2019-02-27T15:32:45.013Z,18.24
2019-02-27T15:37:50.253Z,18.03
2019-02-27T15:42:55.494Z,17.94
2019-02-27T15:48:00.757Z,18.42
2019-02-27T15:53:07.217Z,18.04
2019-02-27T15:58:16.011Z,17.95
2019-02-27T16:03:22.836Z,17.94
2019-02-27T16:08:28.628Z,17.38
2019-02-27T16:13:34.697Z,17.26
2019-02-27T16:18:40.757Z,17.38
2019-02-27T16:23:47.479Z,17.40
2019-02-27T16:28:52.755Z,17.40
2019-02-27T16:33:58.545Z,17.15
2019-02-27T16:39:07.639Z,17.11
2019-02-27T16:44:14.602Z,16.85
2019-02-27T16:49:19.848Z,16.28
2019-02-27T16:54:27.266Z,15.88
2019-02-27T16:59:32.018Z,15.52
2019-02-27T17:04:37.260Z,15.31
2019-02-27T17:09:44.615Z,15.07
2019-02-27T17:14:50.247Z,14.77
2019-02-27T17:19:59.372Z,14.48
2019-02-27T17:25:05.051Z,14.21
2019-02-27T17:30:14.487Z,13.96
2019-02-27T17:35:20.514Z,13.61
2019-02-27T17:40:29.067Z,13.10
2019-02-27T17:45:34.456Z,12.87
2019-02-27T17:50:39.890Z,12.68
2019-02-27T17:55:45.181Z,12.54
2019-02-27T18:00:56.629Z,12.41
2019-02-27T18:06:02.268Z,12.27
2019-02-27T18:11:07.803Z,12.04
2019-02-27T18:16:13.346Z,11.63
2019-02-27T18:21:19.027Z,11.18
2019-02-27T18:26:24.609Z,10.89
2019-02-27T18:31:29.856Z,10.88
2019-02-27T18:36:42.572Z,10.83
2019-02-27T18:41:42.353Z,10.81
2019-02-27T18:46:47.974Z,10.83
2019-02-27T18:51:53.534Z,10.79
2019-02-27T18:56:59.092Z,10.73
2019-02-27T19:02:07.460Z,10.58
2019-02-27T19:07:13.003Z,10.37
2019-02-27T19:12:19.097Z,10.13
2019-02-27T19:17:29.029Z,9.99
2019-02-27T19:22:32.163Z,10.03
2019-02-27T19:27:37.706Z,9.96
2019-02-27T19:32:43.041Z,9.85
2019-02-27T19:37:48.784Z,9.80
2019-02-27T19:42:58.872Z,9.77
2019-02-27T19:48:04.373Z,9.79
2019-02-27T19:53:09.614Z,9.74
2019-02-27T19:58:18.187Z,9.58
2019-02-27T20:03:21.768Z,9.40
2019-02-27T20:08:27.333Z,9.25
2019-02-27T20:13:32.672Z,9.04
2019-02-27T20:18:40.608Z,8.89
2019-02-27T20:23:46.957Z,8.85
2019-02-27T20:28:52.591Z,8.85
2019-02-27T20:33:58.682Z,8.87
2019-02-27T20:39:05.698Z,8.80
2019-02-27T20:44:11.794Z,8.73
2019-02-27T20:49:17.419Z,8.61
2019-02-27T20:54:24.186Z,8.56
2019-02-27T20:59:29.449Z,8.51
2019-02-27T21:04:35.966Z,8.52
2019-02-27T21:09:42.257Z,8.47
2019-02-27T21:14:49.110Z,8.34
2019-02-27T21:19:55.137Z,8.19
2019-02-27T21:25:00.706Z,8.03
2019-02-27T21:30:11.172Z,7.94
2019-02-27T21:35:16.502Z,7.88
2019-02-27T21:40:22.143Z,7.81
2019-02-27T21:45:27.678Z,7.77
2019-02-27T21:50:33.109Z,7.63
2019-02-27T21:55:39.679Z,7.49
2019-02-27T22:00:48.020Z,7.39
2019-02-27T22:05:53.658Z,7.33
2019-02-27T22:10:59.136Z,7.15
2019-02-27T22:16:05.937Z,7.17
2019-02-27T22:21:11.461Z,7.13
2019-02-27T22:26:17.050Z,7.07
2019-02-27T22:31:22.444Z,7.04
2019-02-27T22:36:27.855Z,7.05
2019-02-27T22:41:33.374Z,7.24
2019-02-27T22:46:38.640Z,7.22
2019-02-27T22:51:45.202Z,7.09
2019-02-27T22:56:52.046Z,6.86
2019-02-27T23:01:57.868Z,6.82
2019-02-27T23:07:03.548Z,6.72
2019-02-27T23:12:09.326Z,6.77
2019-02-27T23:17:14.931Z,6.78
2019-02-27T23:22:20.189Z,6.78
2019-02-27T23:27:26.282Z,6.86
2019-02-27T23:32:32.452Z,6.95
2019-02-27T23:37:37.693Z,7.22
2019-02-27T23:42:43.613Z,7.35
2019-02-27T23:47:49.520Z,7.31
2019-02-27T23:52:54.752Z,7.44
2019-02-27T23:58:00.047Z,7.47
